Time;durP1;ratioP1;P1;durP2;ratioP2;P2;SDS_P1;SDS_P2;PMS_P1;PMS_P2;Temp;Humidity;BMP_temperature;BMP_pressure;BME280_temperature;BME280_humidity;BME280_pressure;Samples;Min_cycle;Max_cycle;Signal;HPM_P1;HPM_P2
2022/01/05 00:02:27;;;;;;;;;;;;;;;9.20;76.21;99869.47;5095596;28;19912;-76
2022/01/05 00:05:11;;;;;;;;;;;;;;;9.22;75.89;99848.25;5093095;28;19916;-76
2022/01/05 00:07:55;;;;;;;;;;;;;;;9.28;75.20;99841.50;5093688;28;19911;-76
2022/01/05 00:10:40;;;;;;;;;;;;;;;9.38;74.56;99827.56;5095901;28;20319;-76
2022/01/05 00:13:24;;;;;;;;;;;;;;;9.26;74.85;99822.03;5093506;28;19911;-76
2022/01/05 00:16:09;;;;;;;;;;;;;;;9.40;74.97;99810.94;5097723;28;20090;-77
2022/01/05 00:18:54;;;;;;;;;;;;;;;9.42;74.31;99814.13;5096146;28;19912;-76
2022/01/05 00:21:40;;;;;;;;;;;;;;;9.40;74.41;99814.44;5093904;28;19912;-76
2022/01/05 00:24:24;;;;;;;;;;;;;;;9.47;74.13;99813.13;5097782;28;19912;-77
2022/01/05 00:27:09;;;;;;;;;;;;;;;9.48;74.42;99812.03;5095584;28;19916;-76
2022/01/05 00:29:53;;;;;;;;;;;;;;;9.33;75.76;99806.06;5078839;28;20295;-76
2022/01/05 00:32:38;;;;;;;;;;;;;;;9.18;75.48;99798.50;5098027;28;20280;-76
2022/01/05 00:35:22;;;;;;;;;;;;;;;9.11;76.39;99802.81;5095669;28;19912;-77
2022/01/05 00:38:06;;;;;;;;;;;;;;;9.11;76.28;99803.63;5094695;28;19912;-76
2022/01/05 00:40:51;;;;;;;;;;;;;;;9.13;76.13;99782.41;5098098;28;19912;-76
2022/01/05 00:43:35;;;;;;;;;;;;;;;9.17;75.22;99764.34;5096100;28;19912;-76
2022/01/05 00:46:20;;;;;;;;;;;;;;;9.22;75.14;99763.34;5094649;28;20366;-77
2022/01/05 00:49:04;;;;;;;;;;;;;;;9.24;75.38;99750.28;5098393;28;19916;-76
2022/01/05 00:51:49;;;;;;;;;;;;;;;9.30;75.59;99733.44;5096451;28;19911;-76
2022/01/05 00:54:33;;;;;;;;;;;;;;;9.32;74.95;99733.94;5094954;28;19912;-76
2022/01/05 00:57:18;;;;;;;;;;;;;;;9.32;74.63;99733.13;5092360;28;19912;-76
2022/01/05 01:00:06;;;;;;;;;;;;;;;9.22;75.25;99739.75;5097016;28;19911;-77
2022/01/05 01:02:50;;;;;;;;;;;;;;;9.15;75.90;99739.47;5092138;28;19916;-76
2022/01/05 01:05:34;;;;;;;;;;;;;;;9.34;75.24;99745.25;5092392;28;19916;-77
2022/01/05 01:08:19;;;;;;;;;;;;;;;9.18;75.85;99760.50;5096846;28;19912;-76
2022/01/05 01:11:04;;;;;;;;;;;;;;;9.26;75.53;99756.16;5094931;28;19912;-76
2022/01/05 01:13:48;;;;;;;;;;;;;;;9.30;75.34;99757.88;5092433;28;19912;-76
2022/01/05 01:16:33;;;;;;;;;;;;;;;9.24;76.16;99752.97;5096389;28;19912;-77
2022/01/05 01:19:17;;;;;;;;;;;;;;;9.16;76.09;99743.75;5094753;28;19912;-76
2022/01/05 01:22:02;;;;;;;;;;;;;;;9.11;76.11;99743.97;5093674;28;20376;-77
2022/01/05 01:24:46;;;;;;;;;;;;;;;9.26;75.64;99746.09;5096996;28;19912;-76
2022/01/05 01:27:31;;;;;;;;;;;;;;;9.14;76.28;99732.47;5093592;28;20405;-76
2022/01/05 01:30:15;;;;;;;;;;;;;;;9.23;75.50;99735.91;5093449;28;19912;-76
2022/01/05 01:33:00;;;;;;;;;;;;;;;9.48;75.13;99749.59;5097073;28;20407;-76
2022/01/05 01:35:44;;;;;;;;;;;;;;;9.50;74.99;99767.13;5095370;28;19911;-76
2022/01/05 01:38:28;;;;;;;;;;;;;;;9.43;73.87;99745.97;5093687;28;19912;-77
2022/01/05 01:41:13;;;;;;;;;;;;;;;9.49;74.16;99757.44;5097438;28;19912;-77
2022/01/05 01:43:57;;;;;;;;;;;;;;;9.55;73.85;99752.59;5095326;28;19912;-76
2022/01/05 01:46:42;;;;;;;;;;;;;;;9.40;74.22;99743.09;5094713;28;19916;-77
2022/01/05 01:49:26;;;;;;;;;;;;;;;9.31;74.01;99745.91;5096262;28;19912;-77
2022/01/05 01:52:11;;;;;;;;;;;;;;;9.32;74.15;99741.25;5099992;28;19912;-76
2022/01/05 01:54:56;;;;;;;;;;;;;;;9.30;74.12;99746.22;5098207;28;19912;-76
2022/01/05 01:57:41;;;;;;;;;;;;;;;9.25;74.03;99740.97;5095910;28;20292;-76
2022/01/05 02:00:29;;;;;;;;;;;;;;;9.41;73.79;99759.06;5100404;28;19912;-76
2022/01/05 02:03:14;;;;;;;;;;;;;;;9.37;73.60;99741.06;5097787;28;19911;-77
2022/01/05 02:05:58;;;;;;;;;;;;;;;9.42;73.06;99711.03;5095659;28;19916;-76
2022/01/05 02:08:43;;;;;;;;;;;;;;;9.30;74.14;99722.59;5100303;28;20062;-76
2022/01/05 02:11:27;;;;;;;;;;;;;;;9.42;73.21;99713.75;5098247;28;19912;-76
2022/01/05 02:14:12;;;;;;;;;;;;;;;9.28;73.79;99719.44;5096204;28;19912;-76
2022/01/05 02:16:58;;;;;;;;;;;;;;;9.29;74.27;99712.09;5098645;28;19912;-76
2022/01/05 02:19:42;;;;;;;;;;;;;;;9.45;73.38;99694.88;5098473;28;19912;-76
2022/01/05 02:22:27;;;;;;;;;;;;;;;9.24;74.41;99709.59;5096144;28;19912;-76
2022/01/05 02:25:11;;;;;;;;;;;;;;;9.30;74.41;99681.91;5100054;28;19912;-76
2022/01/05 02:27:56;;;;;;;;;;;;;;;9.27;74.15;99671.72;5095722;28;19916;-76
2022/01/05 02:30:42;;;;;;;;;;;;;;;9.51;73.62;99665.59;5095076;28;19912;-76
2022/01/05 02:33:26;;;;;;;;;;;;;;;9.61;72.27;99656.25;5079106;28;19916;-76
2022/01/05 02:36:15;;;;;;;;;;;;;;;9.72;72.04;99649.28;5075729;28;19912;-76
2022/01/05 02:39:00;;;;;;;;;;;;;;;9.37;73.38;99632.53;5083960;28;20307;-76
2022/01/05 02:41:44;;;;;;;;;;;;;;;9.40;74.17;99616.38;5093874;28;20368;-76
2022/01/05 02:44:29;;;;;;;;;;;;;;;9.38;73.61;99610.53;5083472;28;19911;-77
2022/01/05 02:47:13;;;;;;;;;;;;;;;9.32;73.85;99605.63;5095942;28;19915;-77
2022/01/05 02:49:57;;;;;;;;;;;;;;;9.22;75.04;99590.56;5100436;28;19912;-76
2022/01/05 02:52:42;;;;;;;;;;;;;;;9.24;75.56;99582.09;5087934;28;19911;-77
2022/01/05 02:55:27;;;;;;;;;;;;;;;9.28;75.03;99566.72;5081489;28;19912;-77
2022/01/05 02:58:11;;;;;;;;;;;;;;;9.27;74.97;99567.84;5094273;28;19912;-76
2022/01/05 03:00:56;;;;;;;;;;;;;;;9.23;75.38;99558.81;5082794;28;19912;-77
2022/01/05 03:03:40;;;;;;;;;;;;;;;9.17;75.49;99555.50;5096039;28;19916;-76
2022/01/05 03:06:25;;;;;;;;;;;;;;;9.19;75.60;99566.03;5079226;28;19927;-76
2022/01/05 03:09:09;;;;;;;;;;;;;;;9.16;75.35;99548.50;5098529;28;19912;-77
2022/01/05 03:11:53;;;;;;;;;;;;;;;9.22;74.87;99539.03;5094849;28;19911;-77
2022/01/05 03:14:38;;;;;;;;;;;;;;;9.17;75.01;99536.53;5082503;28;19913;-76
2022/01/05 03:17:22;;;;;;;;;;;;;;;9.17;75.03;99552.00;5074888;28;19912;-76
2022/01/05 03:20:07;;;;;;;;;;;;;;;9.30;74.52;99540.84;5091528;28;19912;-77
2022/01/05 03:22:51;;;;;;;;;;;;;;;9.34;74.13;99536.34;5066062;28;19920;-76
2022/01/05 03:25:36;;;;;;;;;;;;;;;9.42;73.82;99521.91;5075938;28;19924;-76
2022/01/05 03:28:20;;;;;;;;;;;;;;;9.47;73.72;99520.09;5080342;28;19915;-76
2022/01/05 03:31:05;;;;;;;;;;;;;;;9.35;74.08;99521.63;5078281;28;20188;-76
2022/01/05 03:33:49;;;;;;;;;;;;;;;9.18;74.58;99516.41;5086408;28;20292;-76
2022/01/05 03:36:33;;;;;;;;;;;;;;;9.28;75.00;99520.63;5069297;28;19912;-77
2022/01/05 03:39:18;;;;;;;;;;;;;;;9.43;73.88;99509.91;5075120;28;20400;-76
2022/01/05 03:42:02;;;;;;;;;;;;;;;9.37;73.83;99516.69;5078778;28;20289;-77
2022/01/05 03:44:46;;;;;;;;;;;;;;;9.35;73.41;99515.41;5076801;28;19912;-76
2022/01/05 03:47:31;;;;;;;;;;;;;;;9.34;74.21;99511.16;5055005;28;19921;-76
2022/01/05 03:50:16;;;;;;;;;;;;;;;9.48;72.91;99486.41;5059474;28;19912;-77
2022/01/05 03:53:00;;;;;;;;;;;;;;;9.30;74.03;99491.22;5076887;28;19920;-77
2022/01/05 03:55:46;;;;;;;;;;;;;;;9.23;74.45;99505.34;5075483;28;19912;-76
2022/01/05 03:58:30;;;;;;;;;;;;;;;9.24;75.03;99496.09;5072818;28;19920;-77
2022/01/05 04:01:15;;;;;;;;;;;;;;;9.34;74.62;99478.59;5074413;28;19913;-77
2022/01/05 04:03:59;;;;;;;;;;;;;;;9.22;74.34;99473.94;5072858;28;19913;-76
2022/01/05 04:06:44;;;;;;;;;;;;;;;9.07;75.30;99490.06;5071821;28;19924;-77
2022/01/05 04:09:28;;;;;;;;;;;;;;;9.18;74.97;99493.94;5077273;28;19912;-77
2022/01/05 04:12:12;;;;;;;;;;;;;;;9.20;74.88;99480.81;5075481;28;19912;-76
2022/01/05 04:14:57;;;;;;;;;;;;;;;9.32;74.32;99476.22;5072795;28;19912;-76
2022/01/05 04:17:41;;;;;;;;;;;;;;;9.13;74.54;99489.50;5072949;28;19912;-77
2022/01/05 04:20:26;;;;;;;;;;;;;;;9.10;75.08;99482.03;5074980;28;20292;-76
2022/01/05 04:23:10;;;;;;;;;;;;;;;9.30;74.72;99478.44;5073317;28;19916;-76
2022/01/05 04:25:54;;;;;;;;;;;;;;;9.15;74.71;99473.69;5077789;28;19916;-76
2022/01/05 04:28:40;;;;;;;;;;;;;;;9.18;73.79;99462.19;5076157;28;19912;-77
2022/01/05 04:31:25;;;;;;;;;;;;;;;9.36;73.05;99463.53;5074229;28;20107;-76
2022/01/05 04:34:09;;;;;;;;;;;;;;;9.39;73.32;99472.94;5077757;28;19916;-77
2022/01/05 04:36:54;;;;;;;;;;;;;;;9.26;73.87;99463.97;5082787;28;19916;-76
2022/01/05 04:39:38;;;;;;;;;;;;;;;9.25;74.63;99477.88;5068826;28;19913;-76
2022/01/05 04:42:24;;;;;;;;;;;;;;;9.30;73.83;99454.03;5083839;28;19916;-77
2022/01/05 04:45:09;;;;;;;;;;;;;;;9.49;72.74;99450.00;5093091;28;19911;-76
2022/01/05 04:47:53;;;;;;;;;;;;;;;9.31;73.32;99457.53;5081963;28;19916;-77
2022/01/05 04:50:38;;;;;;;;;;;;;;;9.25;73.73;99464.31;5092500;28;19916;-77
2022/01/05 04:53:22;;;;;;;;;;;;;;;9.43;73.16;99452.94;5085456;28;19913;-77
2022/01/05 04:56:07;;;;;;;;;;;;;;;9.46;72.38;99448.75;5090016;28;19912;-76
2022/01/05 04:58:51;;;;;;;;;;;;;;;9.48;72.25;99445.69;5090040;28;19912;-76
2022/01/05 05:01:36;;;;;;;;;;;;;;;9.36;72.78;99449.19;5082472;28;20376;-78
2022/01/05 05:04:20;;;;;;;;;;;;;;;9.28;73.47;99434.63;5075292;28;19916;-76
2022/01/05 05:07:05;;;;;;;;;;;;;;;9.25;73.20;99446.13;5092706;28;19916;-77
2022/01/05 05:09:49;;;;;;;;;;;;;;;9.31;72.82;99431.22;5097099;28;19912;-76
2022/01/05 05:12:34;;;;;;;;;;;;;;;9.35;73.24;99442.16;5069933;28;19912;-76
2022/01/05 05:15:18;;;;;;;;;;;;;;;9.43;72.53;99435.88;5086712;28;19912;-76
2022/01/05 05:18:03;;;;;;;;;;;;;;;9.34;73.28;99421.63;5075027;28;20385;-76
2022/01/05 05:20:48;;;;;;;;;;;;;;;9.24;73.84;99428.28;5079139;28;19912;-75
2022/01/05 05:23:33;;;;;;;;;;;;;;;9.30;72.84;99426.91;5084521;28;19924;-77
2022/01/05 05:26:18;;;;;;;;;;;;;;;9.16;73.78;99429.16;5093815;28;19916;-76
2022/01/05 05:29:02;;;;;;;;;;;;;;;9.13;74.44;99407.34;5086504;28;19912;-76
2022/01/05 05:31:46;;;;;;;;;;;;;;;9.25;73.45;99397.28;5093588;28;20372;-77
2022/01/05 05:34:31;;;;;;;;;;;;;;;9.15;74.00;99378.75;5097164;28;19916;-77
2022/01/05 05:37:16;;;;;;;;;;;;;;;9.14;74.13;99363.63;5092882;28;19911;-76
2022/01/05 05:40:01;;;;;;;;;;;;;;;9.06;74.49;99378.09;5093741;28;19915;-76
2022/01/05 05:42:45;;;;;;;;;;;;;;;9.18;74.69;99374.59;5090455;28;20380;-76
2022/01/05 05:45:30;;;;;;;;;;;;;;;9.22;73.18;99368.16;5095618;28;20284;-76
2022/01/05 05:48:14;;;;;;;;;;;;;;;9.10;74.10;99351.06;5094063;28;19916;-76
2022/01/05 05:50:59;;;;;;;;;;;;;;;9.15;73.98;99359.78;5091723;28;20190;-76
2022/01/05 05:53:44;;;;;;;;;;;;;;;9.23;73.33;99369.75;5095588;28;19920;-77
2022/01/05 05:56:28;;;;;;;;;;;;;;;9.17;73.55;99370.28;5094066;28;19912;-76
2022/01/05 05:59:12;;;;;;;;;;;;;;;9.15;74.23;99375.25;5092174;28;19912;-76
2022/01/05 06:01:57;;;;;;;;;;;;;;;9.23;73.95;99372.44;5096187;28;19914;-77
2022/01/05 06:04:41;;;;;;;;;;;;;;;9.24;73.54;99365.91;5093959;28;20284;-76
2022/01/05 06:07:25;;;;;;;;;;;;;;;9.21;73.75;99363.84;5092024;28;19915;-76
2022/01/05 06:10:10;;;;;;;;;;;;;;;9.17;74.44;99362.94;5096553;28;19912;-76
2022/01/05 06:12:54;;;;;;;;;;;;;;;9.17;73.94;99368.38;5091976;28;19912;-77
2022/01/05 06:15:38;;;;;;;;;;;;;;;9.13;74.51;99363.97;5075119;28;19912;-76
2022/01/05 06:18:23;;;;;;;;;;;;;;;9.19;74.42;99366.13;5076551;28;19912;-77
2022/01/05 06:21:07;;;;;;;;;;;;;;;9.14;74.39;99366.34;5067394;28;19913;-77
2022/01/05 06:23:52;;;;;;;;;;;;;;;9.20;74.33;99356.84;5063182;28;19916;-76
2022/01/05 06:26:36;;;;;;;;;;;;;;;9.21;74.62;99355.72;5061966;28;19916;-76
2022/01/05 06:29:21;;;;;;;;;;;;;;;9.22;74.58;99349.16;5062614;28;19916;-77
2022/01/05 06:32:06;;;;;;;;;;;;;;;9.22;74.65;99356.50;5078067;28;19912;-76
2022/01/05 06:34:51;;;;;;;;;;;;;;;9.20;74.53;99350.63;5088916;28;19920;-76
2022/01/05 06:37:35;;;;;;;;;;;;;;;9.27;74.48;99348.94;5082421;28;20310;-77
2022/01/05 06:40:19;;;;;;;;;;;;;;;9.25;74.29;99348.47;5084938;28;19912;-77
2022/01/05 06:43:04;;;;;;;;;;;;;;;9.33;74.01;99338.66;5062564;28;19912;-76
2022/01/05 06:45:48;;;;;;;;;;;;;;;9.58;72.50;99339.41;5074150;28;19913;-76
2022/01/05 06:48:32;;;;;;;;;;;;;;;9.26;74.08;99338.41;5070200;28;20384;-76
2022/01/05 06:51:17;;;;;;;;;;;;;;;9.18;74.63;99336.63;5077822;28;19912;-76
2022/01/05 06:54:01;;;;;;;;;;;;;;;9.23;74.85;99342.63;5078636;28;19916;-76
2022/01/05 06:56:46;;;;;;;;;;;;;;;9.28;74.74;99334.25;5076922;28;20377;-77
2022/01/05 06:59:31;;;;;;;;;;;;;;;8.92;75.68;99339.66;5077691;28;20319;-79
2022/01/05 07:02:15;;;;;;;;;;;;;;;8.33;77.61;99344.63;5080840;28;19912;-79
2022/01/05 07:05:00;;;;;;;;;;;;;;;7.94;80.61;99340.47;5078717;28;19920;-79
2022/01/05 07:07:44;;;;;;;;;;;;;;;7.82;81.25;99341.22;5077202;28;19916;-79
2022/01/05 07:10:29;;;;;;;;;;;;;;;7.74;81.90;99329.31;5080642;28;19912;-78
2022/01/05 07:13:13;;;;;;;;;;;;;;;7.99;80.58;99321.31;5076814;28;19916;-79
2022/01/05 07:15:58;;;;;;;;;;;;;;;8.15;80.15;99323.09;5077298;28;19913;-79
2022/01/05 07:18:42;;;;;;;;;;;;;;;7.97;80.62;99326.28;5068064;28;19912;-79
2022/01/05 07:21:26;;;;;;;;;;;;;;;8.08;80.94;99322.81;5059178;28;19912;-80
2022/01/05 07:24:16;;;;;;;;;;;;;;;8.27;79.55;99311.50;5076917;28;19912;-80
2022/01/05 07:27:00;;;;;;;;;;;;;;;7.88;80.91;99314.72;5080316;28;19916;-79
2022/01/05 07:29:45;;;;;;;;;;;;;;;7.87;80.62;99316.66;5080601;28;19927;-80
2022/01/05 07:32:30;;;;;;;;;;;;;;;7.88;81.72;99334.47;5078675;28;19912;-79
2022/01/05 07:35:14;;;;;;;;;;;;;;;7.79;82.76;99324.84;5082006;28;19916;-79
2022/01/05 07:37:59;;;;;;;;;;;;;;;7.75;82.94;99330.13;5076546;28;19912;-79
2022/01/05 07:40:43;;;;;;;;;;;;;;;8.00;82.53;99331.03;5074733;28;19912;-80
2022/01/05 07:43:28;;;;;;;;;;;;;;;8.07;80.78;99332.09;5073491;28;19912;-80
2022/01/05 07:46:12;;;;;;;;;;;;;;;8.01;82.36;99333.41;5075870;28;20349;-80
2022/01/05 07:48:57;;;;;;;;;;;;;;;7.99;82.21;99340.28;5069659;28;20301;-80
2022/01/05 07:51:41;;;;;;;;;;;;;;;7.78;83.28;99344.88;5069564;28;19916;-80
2022/01/05 07:54:26;;;;;;;;;;;;;;;7.83;83.70;99342.78;5068867;28;19916;-80
2022/01/05 07:57:11;;;;;;;;;;;;;;;8.02;82.44;99334.22;5077108;28;19912;-80
2022/01/05 07:59:55;;;;;;;;;;;;;;;7.97;82.24;99334.41;5066460;28;19912;-79
2022/01/05 08:02:40;;;;;;;;;;;;;;;7.92;83.02;99340.81;5077462;28;19913;-80
2022/01/05 08:05:24;;;;;;;;;;;;;;;7.82;82.82;99335.00;5080415;28;19912;-79
2022/01/05 08:08:09;;;;;;;;;;;;;;;7.76;83.58;99326.31;5072106;28;20293;-79
2022/01/05 08:10:53;;;;;;;;;;;;;;;7.30;85.45;99329.94;5081132;28;20360;-79
2022/01/05 08:13:38;;;;;;;;;;;;;;;7.40;85.40;99307.94;5071113;28;19912;-78
2022/01/05 08:16:23;;;;;;;;;;;;;;;7.75;84.81;99303.06;5081336;28;19912;-79
2022/01/05 08:19:07;;;;;;;;;;;;;;;7.79;84.22;99295.88;5070338;28;20331;-78
2022/01/05 08:21:51;;;;;;;;;;;;;;;7.90;83.90;99290.84;5075550;28;19916;-79
2022/01/05 08:24:36;;;;;;;;;;;;;;;7.72;84.94;99298.28;5076411;28;19912;-79
2022/01/05 08:27:20;;;;;;;;;;;;;;;8.04;83.46;99310.28;5073998;28;19920;-79
2022/01/05 08:30:06;;;;;;;;;;;;;;;8.10;82.57;99309.75;5067687;28;19923;-79
2022/01/05 08:32:52;;;;;;;;;;;;;;;8.13;82.63;99300.97;5061714;28;19912;-80
2022/01/05 08:35:37;;;;;;;;;;;;;;;8.37;81.81;99299.50;5064722;28;19920;-79
2022/01/05 08:38:21;;;;;;;;;;;;;;;8.39;81.25;99308.84;5074714;28;19916;-79
2022/01/05 08:41:06;;;;;;;;;;;;;;;8.45;81.38;99293.97;5073032;28;19912;-78
2022/01/05 08:43:50;;;;;;;;;;;;;;;8.54;80.83;99293.88;5058549;28;19912;-79
2022/01/05 08:46:35;;;;;;;;;;;;;;;8.77;80.19;99305.09;5072726;28;19931;-80
2022/01/05 08:49:19;;;;;;;;;;;;;;;8.77;80.35;99296.97;5067850;28;20373;-80
2022/01/05 08:52:04;;;;;;;;;;;;;;;8.77;79.65;99283.41;5082032;28;19913;-80
2022/01/05 08:54:48;;;;;;;;;;;;;;;9.00;79.01;99281.81;5074456;28;19912;-79
2022/01/05 08:57:33;;;;;;;;;;;;;;;8.85;79.17;99290.63;5077689;28;20376;-78
2022/01/05 09:00:18;;;;;;;;;;;;;;;8.75;80.05;99294.59;5086480;28;19912;-80
2022/01/05 09:03:04;;;;;;;;;;;;;;;8.88;79.21;99289.97;5084495;28;19924;-80
2022/01/05 09:05:48;;;;;;;;;;;;;;;8.64;80.85;99292.63;5078788;28;19916;-80
2022/01/05 09:08:37;;;;;;;;;;;;;;;8.86;79.75;99287.59;5063156;28;19917;-79
2022/01/05 09:11:22;;;;;;;;;;;;;;;8.70;81.24;99285.88;5074493;28;20368;-80
2022/01/05 09:14:07;;;;;;;;;;;;;;;8.71;81.00;99290.19;5076923;28;19912;-82
2022/01/05 09:16:52;;;;;;;;;;;;;;;8.40;82.58;99293.41;5075375;28;19916;-79
2022/01/05 09:19:36;;;;;;;;;;;;;;;8.53;82.87;99295.03;5072969;28;19912;-79
2022/01/05 09:22:21;;;;;;;;;;;;;;;8.59;82.66;99299.88;5075078;28;19912;-80
2022/01/05 09:25:07;;;;;;;;;;;;;;;8.57;83.78;99301.34;5057858;28;19913;-83
2022/01/05 09:27:52;;;;;;;;;;;;;;;8.88;80.99;99304.31;5067957;28;19920;-83
2022/01/05 09:30:37;;;;;;;;;;;;;;;9.53;81.32;99307.09;5074342;28;19912;-83
2022/01/05 09:33:23;;;;;;;;;;;;;;;8.85;80.83;99312.31;5081044;28;19913;-79
2022/01/05 09:36:18;;;;;;;;;;;;;;;8.58;82.70;99316.47;5084841;28;20296;-79
2022/01/05 09:42:07;;;;;;;;;;;;;;;8.25;84.14;99315.66;5084876;28;19912;-79
2022/01/05 09:44:52;;;;;;;;;;;;;;;8.18;84.55;99310.78;5068074;28;19912;-79
2022/01/05 09:47:55;;;;;;;;;;;;;;;8.28;84.76;99318.50;5073116;28;19938;-78
2022/01/05 09:50:45;;;;;;;;;;;;;;;8.30;84.56;99319.00;5071816;28;19916;-78
2022/01/05 09:53:30;;;;;;;;;;;;;;;8.32;84.28;99327.59;5072290;28;19913;-77
2022/01/05 09:56:15;;;;;;;;;;;;;;;8.35;84.76;99324.19;5070806;28;19921;-78
2022/01/05 09:59:02;;;;;;;;;;;;;;;8.35;85.75;99348.56;5070470;28;19916;-79
2022/01/05 10:01:47;;;;;;;;;;;;;;;8.41;85.59;99346.44;5075124;28;20308;-77
2022/01/05 10:04:32;;;;;;;;;;;;;;;8.37;85.82;99338.22;5062757;28;19916;-78
2022/01/05 10:07:17;;;;;;;;;;;;;;;8.36;85.81;99336.63;5070636;28;19940;-78
2022/01/05 10:10:02;;;;;;;;;;;;;;;8.26;86.52;99322.66;5079599;28;19912;-78
2022/01/05 10:12:46;;;;;;;;;;;;;;;8.25;86.47;99311.03;5077662;28;19912;-77
2022/01/05 10:15:31;;;;;;;;;;;;;;;8.26;86.50;99307.22;5075386;28;19916;-78
2022/01/05 10:18:17;;;;;;;;;;;;;;;8.25;86.67;99310.25;5079787;28;19920;-77
2022/01/05 10:21:03;;;;;;;;;;;;;;;8.20;86.34;99284.19;5077433;28;19934;-78
2022/01/05 10:23:49;;;;;;;;;;;;;;;8.21;86.27;99288.47;5075295;28;19913;-77
2022/01/05 10:26:36;;;;;;;;;;;;;;;8.27;86.63;99281.72;5079262;28;19912;-79
2022/01/05 10:29:21;;;;;;;;;;;;;;;8.42;86.40;99273.00;5077580;28;19916;-78
2022/01/05 10:32:06;;;;;;;;;;;;;;;8.53;85.36;99268.69;5075371;28;19913;-79
2022/01/05 10:35:07;;;;;;;;;;;;;;;8.57;84.98;99277.75;5079363;28;19912;-79
2022/01/05 10:37:59;;;;;;;;;;;;;;;8.51;85.80;99281.81;5075638;28;19912;-78
2022/01/05 10:40:44;;;;;;;;;;;;;;;8.54;85.06;99294.66;5080455;28;19916;-78
2022/01/05 10:43:28;;;;;;;;;;;;;;;8.52;85.73;99317.81;5078481;28;19912;-78
2022/01/05 10:46:31;;;;;;;;;;;;;;;8.54;86.30;99319.03;5074263;28;19912;-77
2022/01/05 10:49:28;;;;;;;;;;;;;;;8.46;86.34;99306.41;5079781;28;19917;-78
2022/01/05 10:52:21;;;;;;;;;;;;;;;8.43;86.73;99307.06;5077336;28;19916;-78
2022/01/05 10:55:25;;;;;;;;;;;;;;;8.46;86.71;99287.44;5074264;28;19912;-78
2022/01/05 10:58:11;;;;;;;;;;;;;;;8.54;87.13;99269.50;5070731;28;19912;-78
2022/01/05 11:00:56;;;;;;;;;;;;;;;8.57;86.82;99252.56;5074450;28;19912;-78
2022/01/05 11:03:41;;;;;;;;;;;;;;;8.70;86.09;99223.56;5079038;28;19912;-78
2022/01/05 11:06:26;;;;;;;;;;;;;;;8.70;86.55;99215.41;5078211;28;19912;-77
2022/01/05 11:09:11;;;;;;;;;;;;;;;8.74;86.57;99216.31;5076278;28;19916;-79
2022/01/05 11:11:56;;;;;;;;;;;;;;;8.77;85.87;99240.84;5074219;28;19916;-78
2022/01/05 11:14:41;;;;;;;;;;;;;;;8.79;85.97;99243.19;5075870;28;19912;-79
2022/01/05 11:17:25;;;;;;;;;;;;;;;8.92;85.54;99253.72;5079602;28;19911;-78
2022/01/05 11:20:10;;;;;;;;;;;;;;;8.95;85.79;99260.34;5082217;28;19920;-78
2022/01/05 11:22:54;;;;;;;;;;;;;;;9.10;85.29;99258.88;5081819;28;19912;-79
2022/01/05 11:25:40;;;;;;;;;;;;;;;9.24;84.79;99249.28;5078205;28;19912;-79
2022/01/05 11:28:25;;;;;;;;;;;;;;;9.43;84.17;99241.31;5069999;28;20368;-78
2022/01/05 11:31:09;;;;;;;;;;;;;;;9.40;83.36;99236.56;5080348;28;20388;-79
2022/01/05 11:33:53;;;;;;;;;;;;;;;9.60;82.30;99237.50;5088836;28;19912;-79
2022/01/05 11:36:38;;;;;;;;;;;;;;;9.56;82.24;99246.69;5082845;28;19916;-78
2022/01/05 11:39:23;;;;;;;;;;;;;;;9.43;84.02;99235.88;5088012;28;19917;-78
2022/01/05 11:42:10;;;;;;;;;;;;;;;9.64;83.00;99230.28;5094782;28;19912;-79
2022/01/05 11:44:55;;;;;;;;;;;;;;;9.80;82.31;99214.81;5094144;28;19912;-78
2022/01/05 11:47:40;;;;;;;;;;;;;;;9.69;81.79;99202.09;5088439;28;19916;-79
2022/01/05 11:50:27;;;;;;;;;;;;;;;9.61;82.64;99208.44;5056564;28;19913;-78
2022/01/05 11:53:12;;;;;;;;;;;;;;;9.37;83.93;99210.13;5075912;28;19912;-80
2022/01/05 11:56:00;;;;;;;;;;;;;;;9.34;84.58;99208.13;5082265;28;19913;-80
2022/01/05 11:58:52;;;;;;;;;;;;;;;9.48;84.70;99199.59;5084542;28;19912;-79
2022/01/05 12:01:37;;;;;;;;;;;;;;;9.49;84.54;99200.38;5062227;28;19916;-78
2022/01/05 12:04:22;;;;;;;;;;;;;;;9.55;84.24;99199.75;5074758;28;19912;-80
2022/01/05 12:07:07;;;;;;;;;;;;;;;9.62;84.33;99210.03;5071098;28;19916;-79
2022/01/05 12:09:52;;;;;;;;;;;;;;;9.64;83.96;99199.63;5074383;28;19913;-80
2022/01/05 12:12:36;;;;;;;;;;;;;;;9.62;84.82;99210.03;5078262;28;20356;-80
2022/01/05 12:15:43;;;;;;;;;;;;;;;9.52;84.43;99205.91;5076479;28;19912;-79
2022/01/05 12:18:30;;;;;;;;;;;;;;;9.43;85.28;99205.25;5074118;28;20408;-78
2022/01/05 12:21:33;;;;;;;;;;;;;;;9.25;86.16;99202.00;5079084;28;19920;-79
2022/01/05 12:24:18;;;;;;;;;;;;;;;9.23;86.15;99198.09;5089681;28;19912;-78
2022/01/05 12:27:21;;;;;;;;;;;;;;;9.22;85.97;99185.66;5088131;28;19912;-78
2022/01/05 12:30:18;;;;;;;;;;;;;;;9.33;85.38;99175.91;5089973;28;19912;-79
2022/01/05 12:33:13;;;;;;;;;;;;;;;9.32;85.32;99179.75;5081807;28;20348;-79
2022/01/05 12:36:00;;;;;;;;;;;;;;;9.28;85.61;99173.44;5091756;28;19913;-79
2022/01/05 12:38:44;;;;;;;;;;;;;;;9.26;85.84;99181.09;5090614;28;19912;-78
2022/01/05 12:41:31;;;;;;;;;;;;;;;9.30;85.24;99196.34;5086033;28;20333;-78
2022/01/05 12:44:15;;;;;;;;;;;;;;;9.26;85.40;99200.88;5093153;28;19927;-79
2022/01/05 12:47:00;;;;;;;;;;;;;;;9.22;85.94;99197.28;5091498;28;20380;-78
2022/01/05 12:49:44;;;;;;;;;;;;;;;9.15;85.27;99190.84;5088479;28;19912;-78
2022/01/05 12:52:37;;;;;;;;;;;;;;;9.15;84.04;99178.09;5076594;28;19912;-78
2022/01/05 12:55:23;;;;;;;;;;;;;;;9.12;83.61;99183.41;5067045;28;19912;-79
2022/01/05 12:58:07;;;;;;;;;;;;;;;9.10;84.16;99186.47;5079212;28;20384;-78
2022/01/05 13:00:54;;;;;;;;;;;;;;;9.08;84.75;99183.31;5077055;28;19912;-79
2022/01/05 13:03:40;;;;;;;;;;;;;;;8.94;84.36;99180.16;5071140;28;19912;-77
2022/01/05 13:06:26;;;;;;;;;;;;;;;8.86;85.11;99179.16;5067771;28;19912;-79
2022/01/05 13:09:21;;;;;;;;;;;;;;;8.92;85.85;99182.44;5079901;28;19916;-78
2022/01/05 13:12:11;;;;;;;;;;;;;;;8.85;85.87;99180.28;5073716;28;19912;-79
2022/01/05 13:14:57;;;;;;;;;;;;;;;8.77;86.50;99170.38;5077237;28;20098;-79
2022/01/05 13:17:42;;;;;;;;;;;;;;;8.67;87.22;99181.69;5073549;28;19912;-77
2022/01/05 13:20:27;;;;;;;;;;;;;;;8.63;87.64;99180.00;5073832;28;19912;-79
2022/01/05 13:23:11;;;;;;;;;;;;;;;8.67;87.83;99180.88;5077670;28;19912;-79
2022/01/05 13:25:55;;;;;;;;;;;;;;;8.68;87.92;99160.78;5075713;28;19912;-79
2022/01/05 13:28:40;;;;;;;;;;;;;;;8.65;87.88;99164.16;5076686;28;19917;-78
2022/01/05 13:31:25;;;;;;;;;;;;;;;8.63;88.21;99158.31;5089630;28;19912;-78
2022/01/05 13:34:09;;;;;;;;;;;;;;;8.65;88.22;99166.88;5084760;28;19912;-79
2022/01/05 13:36:53;;;;;;;;;;;;;;;8.64;87.52;99165.28;5075311;28;19912;-78
2022/01/05 13:39:38;;;;;;;;;;;;;;;8.65;87.80;99145.19;5074769;28;19912;-77
2022/01/05 13:42:31;;;;;;;;;;;;;;;8.68;87.80;99134.50;5076219;28;19912;-78
2022/01/05 13:45:19;;;;;;;;;;;;;;;8.71;86.93;99135.72;5078892;28;19912;-78
2022/01/05 13:48:08;;;;;;;;;;;;;;;8.68;87.03;99139.13;5083396;28;19920;-79
2022/01/05 13:50:54;;;;;;;;;;;;;;;8.63;86.84;99140.16;5078332;28;20404;-77
2022/01/05 13:53:44;;;;;;;;;;;;;;;8.72;85.88;99137.31;5086902;28;19912;-78
2022/01/05 13:56:38;;;;;;;;;;;;;;;8.67;85.09;99149.16;5078261;28;19917;-78
2022/01/05 13:59:22;;;;;;;;;;;;;;;8.63;84.80;99148.28;5054523;28;19913;-79
2022/01/05 14:02:10;;;;;;;;;;;;;;;8.68;84.61;99149.97;5053533;28;19912;-78
2022/01/05 14:04:59;;;;;;;;;;;;;;;8.70;83.30;99156.59;5056427;28;20281;-78
2022/01/05 14:07:44;;;;;;;;;;;;;;;8.71;83.84;99144.63;5052397;28;20385;-78
2022/01/05 14:10:33;;;;;;;;;;;;;;;8.78;84.82;99146.78;5053150;28;19912;-77
2022/01/05 14:13:24;;;;;;;;;;;;;;;8.75;84.36;99133.91;5068212;28;20297;-78
2022/01/05 14:16:14;;;;;;;;;;;;;;;8.70;85.24;99131.41;5074477;28;19912;-78
2022/01/05 14:19:12;;;;;;;;;;;;;;;8.62;85.65;99130.44;5070692;28;20384;-78
2022/01/05 14:22:04;;;;;;;;;;;;;;;8.66;84.92;99139.44;5074971;28;20292;-80
2022/01/05 14:24:48;;;;;;;;;;;;;;;8.65;84.40;99143.28;5073245;28;19913;-78
2022/01/05 14:27:37;;;;;;;;;;;;;;;8.63;84.74;99145.56;5071823;28;19916;-79
2022/01/05 14:30:28;;;;;;;;;;;;;;;8.75;84.45;99155.56;5075211;28;20312;-78
2022/01/05 14:33:23;;;;;;;;;;;;;;;8.71;83.98;99150.06;5072618;28;19916;-81
2022/01/05 14:36:27;;;;;;;;;;;;;;;8.75;82.61;99155.56;5071067;28;19912;-79
2022/01/05 14:39:13;;;;;;;;;;;;;;;8.65;83.07;99156.03;5072746;28;19912;-78